createdAt,value
2018-11-01T00:02:04.546Z,99573.36
2018-11-01T00:04:39.507Z,99573.59
2018-11-01T00:07:13.595Z,99573.20
2018-11-01T00:09:46.813Z,99569.87
2018-11-01T00:12:19.353Z,99560.63
2018-11-01T00:14:53.780Z,99556.71
2018-11-01T00:17:28.277Z,99556.73
2018-11-01T00:20:01.808Z,99551.80
2018-11-01T00:22:35.494Z,99554.21
2018-11-01T00:25:11.472Z,99558.57
2018-11-01T00:27:44.854Z,99558.26
2018-11-01T00:30:16.556Z,99554.92
2018-11-01T00:32:49.315Z,99558.91
2018-11-01T00:35:22.357Z,99564.03
2018-11-01T00:37:55.285Z,99567.11
2018-11-01T00:40:28.885Z,99573.64
2018-11-01T00:43:02.489Z,99579.45
2018-11-01T00:45:36.026Z,99574.27
2018-11-01T00:48:10.515Z,99579.70
2018-11-01T00:50:44.372Z,99580.43
2018-11-01T00:53:16.973Z,99579.20
2018-11-01T00:55:51.757Z,99571.52
2018-11-01T00:58:24.662Z,99581.05
2018-11-01T01:00:57.404Z,99581.55
2018-11-01T01:03:31.590Z,99573.75
2018-11-01T01:06:04.265Z,99575.34
2018-11-01T01:08:37.176Z,99574.58
2018-11-01T01:11:10.211Z,99572.48
2018-11-01T01:13:44.680Z,99579.38
2018-11-01T01:16:20.022Z,99591.50
2018-11-01T01:18:53.449Z,99583.73
2018-11-01T01:21:28.875Z,99592.53
2018-11-01T01:24:02.658Z,99592.53
2018-11-01T01:26:41.722Z,99583.48
2018-11-01T01:29:16.776Z,99580.84
2018-11-01T01:32:02.157Z,99584.59
2018-11-01T01:34:34.863Z,99580.06
2018-11-01T01:37:09.005Z,99576.72
2018-11-01T01:39:41.856Z,99572.98
2018-11-01T01:42:16.189Z,99572.58
2018-11-01T01:44:50.000Z,99582.48
2018-11-01T01:47:22.641Z,99572.88
2018-11-01T01:49:58.493Z,99576.01
2018-11-01T01:52:31.495Z,99570.06
2018-11-01T01:55:08.338Z,99553.55
2018-11-01T01:57:43.685Z,99544.77
2018-11-01T02:00:21.123Z,99540.33
2018-11-01T02:02:54.483Z,99555.09
2018-11-01T02:05:28.104Z,99551.13
2018-11-01T02:08:01.049Z,99552.55
2018-11-01T02:10:37.675Z,99547.36
2018-11-01T02:13:21.393Z,99547.34
2018-11-01T02:15:56.795Z,99544.50
2018-11-01T02:18:30.142Z,99536.08
2018-11-01T02:21:07.473Z,99539.77
2018-11-01T02:23:51.837Z,99536.84
2018-11-01T02:26:26.087Z,99533.44
2018-11-01T02:29:01.526Z,99538.13
2018-11-01T02:31:35.690Z,99536.40
2018-11-01T02:34:10.647Z,99534.02
2018-11-01T02:36:43.575Z,99532.67
2018-11-01T02:39:20.234Z,99534.09
2018-11-01T02:41:53.448Z,99532.15
2018-11-01T02:44:26.406Z,99533.38
2018-11-01T02:46:58.948Z,99535.97
2018-11-01T02:49:31.961Z,99539.36
2018-11-01T02:52:05.118Z,99535.20
2018-11-01T02:54:37.673Z,99543.40
2018-11-01T02:57:10.753Z,99549.34
2018-11-01T02:59:44.514Z,99544.00
2018-11-01T03:02:17.548Z,99553.20
2018-11-01T03:04:51.772Z,99549.48
2018-11-01T03:07:24.890Z,99564.61
2018-11-01T03:09:58.341Z,99562.78
2018-11-01T03:12:30.862Z,99564.91
2018-11-01T03:15:08.355Z,99562.06
2018-11-01T03:17:42.336Z,99557.86
2018-11-01T03:20:15.001Z,99550.11
2018-11-01T03:22:52.849Z,99549.08
2018-11-01T03:25:26.432Z,99556.41
2018-11-01T03:27:59.089Z,99552.30
2018-11-01T03:30:32.041Z,99548.26
2018-11-01T03:33:09.742Z,99544.45
2018-11-01T03:36:00.734Z,99543.78
2018-11-01T03:38:38.360Z,99544.13
2018-11-01T03:41:12.255Z,99536.16
2018-11-01T03:43:46.035Z,99533.13
2018-11-01T03:46:18.724Z,99521.31
2018-11-01T03:48:51.205Z,99518.75
2018-11-01T03:51:24.175Z,99513.75
2018-11-01T03:53:56.791Z,99517.27
2018-11-01T03:56:29.324Z,99512.72
2018-11-01T03:59:02.516Z,99510.14
2018-11-01T04:01:35.042Z,99511.08
2018-11-01T04:04:07.973Z,99514.38
2018-11-01T04:06:45.331Z,99509.09
2018-11-01T04:09:18.218Z,99502.93
2018-11-01T04:11:50.790Z,99494.75
2018-11-01T04:14:23.969Z,99485.95
2018-11-01T04:16:56.544Z,99480.86
2018-11-01T04:19:29.085Z,99484.34
2018-11-01T04:22:04.506Z,99484.18
2018-11-01T04:24:38.545Z,99480.98
2018-11-01T04:27:12.203Z,99477.05
2018-11-01T04:29:46.364Z,99468.30
2018-11-01T04:32:18.985Z,99463.70
2018-11-01T04:34:51.511Z,99458.57
2018-11-01T04:37:24.567Z,99457.13
2018-11-01T04:39:57.101Z,99466.86
2018-11-01T04:42:29.684Z,99472.30
2018-11-01T04:45:06.145Z,99487.00
2018-11-01T04:47:40.092Z,99504.19
2018-11-01T04:50:13.457Z,99516.63
2018-11-01T04:52:47.264Z,99518.13
2018-11-01T04:55:20.733Z,99517.98
2018-11-01T04:57:54.377Z,99506.27
2018-11-01T05:00:27.328Z,99499.27
2018-11-01T05:03:00.612Z,99498.41
2018-11-01T05:05:33.133Z,99493.18
2018-11-01T05:08:06.367Z,99484.17
2018-11-01T05:10:39.021Z,99479.16
2018-11-01T05:13:11.914Z,99478.41
2018-11-01T05:15:45.865Z,99469.25
2018-11-01T05:18:18.505Z,99471.05
2018-11-01T05:20:52.051Z,99481.06
2018-11-01T05:23:25.493Z,99483.65
2018-11-01T05:26:00.317Z,99480.74
2018-11-01T05:28:36.690Z,99477.30
2018-11-01T05:31:11.224Z,99467.25
2018-11-01T05:33:46.352Z,99477.73
2018-11-01T05:36:18.968Z,99474.82
2018-11-01T05:38:51.569Z,99475.59
2018-11-01T05:41:24.428Z,99477.00
2018-11-01T05:43:56.890Z,99482.54
2018-11-01T05:46:29.546Z,99484.13
2018-11-01T05:49:04.538Z,99490.60
2018-11-01T05:51:37.157Z,99481.83
2018-11-01T05:54:09.925Z,99471.69
2018-11-01T05:56:44.436Z,99477.67
2018-11-01T05:59:17.106Z,99477.70
2018-11-01T06:01:58.898Z,99478.66
2018-11-01T06:04:31.516Z,99486.88
2018-11-01T06:07:06.356Z,99493.61
2018-11-01T06:09:40.201Z,99484.58
2018-11-01T06:12:12.736Z,99483.59
2018-11-01T06:14:46.180Z,99486.23
2018-11-01T06:17:20.293Z,99483.05
2018-11-01T06:19:55.383Z,99478.88
2018-11-01T06:22:29.136Z,99478.17
2018-11-01T06:25:02.673Z,99485.57
2018-11-01T06:27:35.390Z,99481.00
2018-11-01T06:30:17.109Z,99485.11
2018-11-01T06:32:53.879Z,99491.09
2018-11-01T06:35:34.661Z,99499.44
2018-11-01T06:38:07.597Z,99505.60
2018-11-01T06:40:40.286Z,99511.03
2018-11-01T06:43:14.245Z,99510.80
2018-11-01T06:45:47.700Z,99521.31
2018-11-01T06:48:21.440Z,99533.65
2018-11-01T06:50:54.685Z,99542.98
2018-11-01T06:53:27.280Z,99548.17
2018-11-01T06:56:02.387Z,99550.55
2018-11-01T06:58:37.888Z,99549.05
2018-11-01T07:01:11.552Z,99540.81
2018-11-01T07:03:45.362Z,99540.93
2018-11-01T07:06:22.713Z,99536.98
2018-11-01T07:08:55.418Z,99544.28
2018-11-01T07:11:28.257Z,99540.30
2018-11-01T07:14:01.187Z,99547.48
2018-11-01T07:16:34.389Z,99548.69
2018-11-01T07:19:13.669Z,99545.81
2018-11-01T07:21:48.577Z,99544.83
2018-11-01T07:24:25.028Z,99537.91
2018-11-01T07:27:00.597Z,99524.89
2018-11-01T07:29:33.638Z,99523.55
2018-11-01T07:32:09.425Z,99522.88
2018-11-01T07:34:43.670Z,99517.84
2018-11-01T07:37:19.710Z,99512.83
2018-11-01T07:39:56.859Z,99508.13
2018-11-01T07:42:32.003Z,99508.56
2018-11-01T07:45:08.074Z,99513.53
2018-11-01T07:47:42.691Z,99508.55
2018-11-01T07:50:16.191Z,99507.61
2018-11-01T07:52:53.491Z,99511.92
2018-11-01T07:55:27.494Z,99507.97
2018-11-01T07:58:00.131Z,99505.64
2018-11-01T08:00:35.329Z,99503.04
2018-11-01T08:03:10.137Z,99502.18
2018-11-01T08:05:43.604Z,99493.39
2018-11-01T08:08:16.676Z,99499.28
2018-11-01T08:10:49.548Z,99494.09
2018-11-01T08:13:23.005Z,99489.56
2018-11-01T08:15:57.770Z,99498.23
2018-11-01T08:18:31.330Z,99491.80
2018-11-01T08:21:09.930Z,99487.56
2018-11-01T08:23:45.286Z,99486.01
2018-11-01T08:26:20.350Z,99476.78
2018-11-01T08:28:55.007Z,99467.23
2018-11-01T08:31:28.605Z,99467.14
2018-11-01T08:34:15.114Z,99469.61
2018-11-01T08:36:50.455Z,99469.59
2018-11-01T08:39:25.387Z,99470.92
2018-11-01T08:42:01.738Z,99471.11
2018-11-01T08:44:37.724Z,99469.09
2018-11-01T08:47:11.221Z,99462.57
2018-11-01T08:49:46.882Z,99458.98
2018-11-01T08:52:19.435Z,99453.62
2018-11-01T08:54:53.737Z,99457.63
2018-11-01T08:57:30.683Z,99454.66
2018-11-01T09:00:07.768Z,99455.84
2018-11-01T09:02:44.579Z,99446.55
2018-11-01T09:05:21.381Z,99443.84
2018-11-01T09:08:01.084Z,99436.86
2018-11-01T09:10:36.467Z,99432.52
2018-11-01T09:13:09.889Z,99435.75
2018-11-01T09:15:44.766Z,99436.17
2018-11-01T09:18:21.946Z,99435.59
2018-11-01T09:20:55.279Z,99440.17
2018-11-01T09:23:27.936Z,99438.25
2018-11-01T09:26:01.089Z,99442.36
2018-11-01T09:28:36.905Z,99450.28
2018-11-01T09:31:11.761Z,99464.92
2018-11-01T09:33:46.180Z,99483.33
2018-11-01T09:36:22.823Z,99485.70
2018-11-01T09:38:58.934Z,99481.19
2018-11-01T09:41:35.451Z,99460.70
2018-11-01T09:44:08.734Z,99456.42
2018-11-01T09:46:43.504Z,99460.63
2018-11-01T09:49:18.446Z,99454.84
2018-11-01T09:51:52.456Z,99448.15
2018-11-01T09:54:37.176Z,99450.80
2018-11-01T09:57:14.860Z,99456.73
2018-11-01T09:59:57.881Z,99461.73
2018-11-01T10:02:40.538Z,99469.56
2018-11-01T10:05:15.553Z,99468.91
2018-11-01T10:07:51.408Z,99468.22
2018-11-01T10:10:25.061Z,99469.47
2018-11-01T10:13:02.707Z,99475.05
2018-11-01T10:15:56.508Z,99472.49
2018-11-01T10:18:32.539Z,99461.83
2018-11-01T10:21:07.612Z,99460.03
2018-11-01T10:23:48.630Z,99453.73
2018-11-01T10:26:23.266Z,99449.20
2018-11-01T10:28:59.384Z,99451.77
2018-11-01T10:31:33.972Z,99456.30
2018-11-01T10:34:08.727Z,99457.38
2018-11-01T10:36:45.072Z,99459.91
2018-11-01T10:39:22.297Z,99462.38
2018-11-01T10:41:59.644Z,99463.28
2018-11-01T10:44:35.435Z,99461.08
2018-11-01T10:47:14.008Z,99463.98
2018-11-01T10:49:47.148Z,99464.72
2018-11-01T10:52:21.956Z,99461.75
2018-11-01T10:54:58.146Z,99456.11
2018-11-01T10:57:31.544Z,99458.21
2018-11-01T11:00:16.720Z,99458.24
2018-11-01T11:02:51.614Z,99449.50
2018-11-01T11:05:32.187Z,99448.73
2018-11-01T11:08:08.210Z,99445.16
2018-11-01T11:10:49.283Z,99440.25
2018-11-01T11:13:24.130Z,99431.67
2018-11-01T11:15:57.964Z,99428.86
2018-11-01T11:18:36.792Z,99423.16
2018-11-01T11:21:15.287Z,99407.89
2018-11-01T11:23:49.025Z,99401.34
2018-11-01T11:26:23.755Z,99388.33
2018-11-01T11:29:01.969Z,99385.17
2018-11-01T11:31:37.756Z,99382.97
2018-11-01T11:34:12.483Z,99376.03
2018-11-01T11:36:46.870Z,99369.17
2018-11-01T11:39:25.219Z,99373.74
2018-11-01T11:42:00.714Z,99381.95
2018-11-01T11:44:39.593Z,99394.65
2018-11-01T11:47:13.979Z,99395.95
2018-11-01T11:49:49.242Z,99404.47
2018-11-01T11:52:22.644Z,99409.77
2018-11-01T11:54:56.367Z,99411.20
2018-11-01T11:57:32.567Z,99406.00
2018-11-01T12:00:17.339Z,99411.27
2018-11-01T12:02:52.028Z,99416.48
2018-11-01T12:05:29.798Z,99421.37
2018-11-01T12:08:03.920Z,99426.61
2018-11-01T12:10:45.703Z,99427.41
2018-11-01T12:13:22.762Z,99414.75
2018-11-01T12:15:58.222Z,99424.17
2018-11-01T12:18:37.586Z,99424.89
2018-11-01T12:21:17.979Z,99424.69
2018-11-01T12:23:58.073Z,99422.44
2018-11-01T12:26:36.114Z,99419.91
2018-11-01T12:29:10.715Z,99418.98
2018-11-01T12:32:05.516Z,99408.20
2018-11-01T12:34:41.565Z,99406.92
2018-11-01T12:37:18.318Z,99400.92
2018-11-01T12:39:53.959Z,99394.19
2018-11-01T12:42:43.710Z,99394.67
2018-11-01T12:45:29.074Z,99388.93
2018-11-01T12:48:04.063Z,99391.79
2018-11-01T12:50:44.137Z,99392.86
2018-11-01T12:53:18.996Z,99395.44
2018-11-01T12:55:55.402Z,99392.16
2018-11-01T12:58:33.183Z,99395.28
2018-11-01T13:01:10.113Z,99398.91
2018-11-01T13:03:51.207Z,99407.00
2018-11-01T13:06:26.730Z,99407.51
2018-11-01T13:09:01.245Z,99409.61
2018-11-01T13:11:38.389Z,99409.54
2018-11-01T13:14:12.198Z,99410.52
2018-11-01T13:16:48.048Z,99409.50
2018-11-01T13:19:29.164Z,99404.69
2018-11-01T13:22:08.030Z,99398.73
2018-11-01T13:24:44.051Z,99398.87
2018-11-01T13:27:19.070Z,99397.90
2018-11-01T13:29:54.758Z,99404.06
2018-11-01T13:32:32.342Z,99407.89
2018-11-01T13:35:11.063Z,99413.82
2018-11-01T13:37:48.405Z,99416.24
2018-11-01T13:40:38.065Z,99422.32
2018-11-01T13:43:13.227Z,99422.77
2018-11-01T13:45:46.756Z,99427.11
2018-11-01T13:48:23.628Z,99437.06
2018-11-01T13:50:57.315Z,99438.64
2018-11-01T13:53:34.780Z,99442.95
2018-11-01T13:56:11.815Z,99439.32
2018-11-01T13:58:47.106Z,99439.77
2018-11-01T14:01:25.834Z,99447.39
2018-11-01T14:04:05.443Z,99455.68
2018-11-01T14:06:39.617Z,99447.17
2018-11-01T14:09:21.710Z,99443.88
2018-11-01T14:11:58.273Z,99447.00
2018-11-01T14:14:35.258Z,99446.59
2018-11-01T14:17:09.211Z,99444.70
2018-11-01T14:19:43.901Z,99456.80
2018-11-01T14:22:17.149Z,99465.19
2018-11-01T14:27:51.926Z,99458.87
2018-11-01T14:30:25.814Z,99464.85
2018-11-01T14:33:02.736Z,99456.42
2018-11-01T14:35:37.628Z,99456.09
2018-11-01T14:38:15.906Z,99454.28
2018-11-01T14:40:51.494Z,99457.39
2018-11-01T14:43:31.588Z,99458.39
2018-11-01T14:46:07.151Z,99459.16
2018-11-01T14:48:46.524Z,99464.80
2018-11-01T14:51:23.805Z,99466.20
2018-11-01T14:54:00.341Z,99468.33
2018-11-01T14:56:34.653Z,99465.75
2018-11-01T14:59:12.362Z,99466.77
2018-11-01T15:01:48.472Z,99471.36
2018-11-01T15:04:27.387Z,99471.14
2018-11-01T15:07:01.715Z,99474.98
2018-11-01T15:09:36.371Z,99467.13
2018-11-01T15:12:10.521Z,99470.33
2018-11-01T15:14:43.968Z,99469.44
2018-11-01T15:17:19.043Z,99468.53
2018-11-01T15:19:52.712Z,99459.73
2018-11-01T15:22:27.921Z,99466.15
2018-11-01T15:25:03.361Z,99463.86
2018-11-01T15:27:39.118Z,99464.64
2018-11-01T15:30:22.946Z,99461.50
2018-11-01T15:32:57.773Z,99458.91
2018-11-01T15:35:34.222Z,99459.14
2018-11-01T15:38:10.416Z,99454.52
2018-11-01T15:41:00.699Z,99452.45
2018-11-01T15:43:37.852Z,99447.00
2018-11-01T15:46:19.018Z,99448.52
2018-11-01T15:48:54.369Z,99443.45
2018-11-01T15:51:36.563Z,99449.61
2018-11-01T15:54:27.113Z,99445.22
2018-11-01T15:57:00.212Z,99444.17
2018-11-01T15:59:33.616Z,99444.32
2018-11-01T16:02:08.702Z,99438.51
2018-11-01T16:04:44.056Z,99437.51
2018-11-01T16:07:18.608Z,99437.55
2018-11-01T16:09:58.999Z,99430.78
2018-11-01T16:12:40.150Z,99427.78
2018-11-01T16:15:17.653Z,99427.88
2018-11-01T16:17:53.272Z,99424.56
2018-11-01T16:20:29.243Z,99426.95
2018-11-01T16:23:12.028Z,99425.05
2018-11-01T16:25:47.326Z,99420.04
2018-11-01T16:28:22.999Z,99419.64
2018-11-01T16:30:57.428Z,99418.59
2018-11-01T16:33:31.279Z,99415.05
2018-11-01T16:36:09.509Z,99415.02
2018-11-01T16:38:47.058Z,99413.19
2018-11-01T16:41:33.288Z,99413.42
2018-11-01T16:44:13.641Z,99410.45
2018-11-01T16:46:49.568Z,99421.87
2018-11-01T16:49:30.323Z,99417.50
2018-11-01T16:52:13.261Z,99411.62
2018-11-01T16:54:52.599Z,99420.50
2018-11-01T16:57:33.387Z,99425.42
2018-11-01T17:00:13.453Z,99424.31
2018-11-01T17:02:48.413Z,99428.63
2018-11-01T17:05:26.761Z,99433.75
2018-11-01T17:08:00.483Z,99434.05
2018-11-01T17:10:37.977Z,99442.21
2018-11-01T17:13:14.955Z,99440.25
2018-11-01T17:15:49.761Z,99441.05
2018-11-01T17:18:25.316Z,99444.21
2018-11-01T17:21:04.216Z,99445.55
2018-11-01T17:23:46.638Z,99458.89
2018-11-01T17:26:23.739Z,99459.00
2018-11-01T17:28:59.774Z,99459.80
2018-11-01T17:31:37.538Z,99454.01
2018-11-01T17:34:14.413Z,99459.56
2018-11-01T17:36:48.909Z,99463.38
2018-11-01T17:39:25.480Z,99463.27
2018-11-01T17:42:02.547Z,99465.97
2018-11-01T17:44:37.690Z,99471.25
2018-11-01T17:47:11.854Z,99473.46
2018-11-01T17:49:56.658Z,99474.25
2018-11-01T17:52:36.202Z,99472.12
2018-11-01T17:55:13.744Z,99474.87
2018-11-01T17:57:47.442Z,99476.02
2018-11-01T18:00:31.903Z,99478.53
2018-11-01T18:03:07.430Z,99476.64
2018-11-01T18:05:43.040Z,99481.66
2018-11-01T18:08:19.234Z,99487.12
2018-11-01T18:10:53.956Z,99484.34
2018-11-01T18:13:29.713Z,99480.64
2018-11-01T18:16:04.516Z,99479.80
2018-11-01T18:18:42.276Z,99478.48
2018-11-01T18:21:19.131Z,99474.61
2018-11-01T18:24:01.590Z,99476.48
2018-11-01T18:26:38.187Z,99477.90
2018-11-01T18:29:18.249Z,99479.00
2018-11-01T18:31:54.202Z,99477.80
2018-11-01T18:34:28.778Z,99476.53
2018-11-01T18:37:04.056Z,99467.73
2018-11-01T18:39:36.987Z,99489.76
2018-11-01T18:42:13.257Z,99488.31
2018-11-01T18:44:49.441Z,99493.73
2018-11-01T18:47:24.351Z,99491.15
2018-11-01T18:50:00.440Z,99487.32
2018-11-01T18:52:44.493Z,99486.83
2018-11-01T18:55:23.410Z,99487.64
2018-11-01T18:57:59.325Z,99486.48
2018-11-01T19:00:40.994Z,99496.74
2018-11-01T19:03:28.619Z,99497.45
2018-11-01T19:06:27.034Z,99497.41
2018-11-01T19:09:05.536Z,99499.33
2018-11-01T19:11:42.353Z,99496.44
2018-11-01T19:14:26.116Z,99503.66
2018-11-01T19:17:15.050Z,99512.40
2018-11-01T19:19:52.966Z,99514.67
2018-11-01T19:22:27.327Z,99512.48
2018-11-01T19:25:04.349Z,99519.27
2018-11-01T19:27:44.416Z,99523.11
2018-11-01T19:30:21.743Z,99531.28
2018-11-01T19:33:21.770Z,99533.70
2018-11-01T19:36:02.745Z,99526.78
2018-11-01T19:38:41.770Z,99520.31
2018-11-01T19:41:17.203Z,99527.17
2018-11-01T19:43:57.708Z,99521.59
2018-11-01T19:46:33.082Z,99521.11
2018-11-01T19:49:21.623Z,99527.61
2018-11-01T19:52:01.611Z,99530.28
2018-11-01T19:54:41.734Z,99529.57
2018-11-01T19:57:17.302Z,99531.19
2018-11-01T19:59:53.310Z,99537.51
2018-11-01T20:02:29.176Z,99533.32
2018-11-01T20:05:05.359Z,99533.74
2018-11-01T20:07:43.754Z,99539.80
2018-11-01T20:10:22.445Z,99537.62
2018-11-01T20:12:57.809Z,99540.61
2018-11-01T20:15:32.038Z,99544.09
2018-11-01T20:18:08.588Z,99544.02
2018-11-01T20:20:47.451Z,99541.87
2018-11-01T20:23:23.592Z,99551.40
2018-11-01T20:25:57.966Z,99556.21
2018-11-01T20:28:35.599Z,99551.66
2018-11-01T20:31:10.134Z,99556.39
2018-11-01T20:33:51.199Z,99555.06
2018-11-01T20:36:25.961Z,99553.80
2018-11-01T20:39:01.031Z,99555.27
2018-11-01T20:41:41.180Z,99555.67
2018-11-01T20:44:13.805Z,99559.91
2018-11-01T20:46:49.000Z,99558.95
2018-11-01T20:49:26.074Z,99564.47
2018-11-01T20:52:03.094Z,99560.41
2018-11-01T20:54:38.099Z,99557.30
2018-11-01T20:57:19.342Z,99550.59
2018-11-01T20:59:54.526Z,99550.22
2018-11-01T21:02:31.138Z,99546.64
2018-11-01T21:05:07.800Z,99540.23
2018-11-01T21:07:42.332Z,99546.73
2018-11-01T21:10:26.007Z,99550.42
2018-11-01T21:13:01.661Z,99559.23
2018-11-01T21:15:37.495Z,99560.15
2018-11-01T21:18:13.752Z,99560.15
2018-11-01T21:20:48.304Z,99558.02
2018-11-01T21:23:27.149Z,99550.55
2018-11-01T21:26:07.541Z,99561.48
2018-11-01T21:28:49.826Z,99557.30
2018-11-01T21:31:26.101Z,99556.78
2018-11-01T21:34:06.174Z,99571.84
2018-11-01T21:36:43.418Z,99560.28
2018-11-01T21:39:16.370Z,99555.79
2018-11-01T21:41:57.567Z,99557.98
2018-11-01T21:44:35.814Z,99576.45
2018-11-01T21:47:11.652Z,99575.52
2018-11-01T21:49:51.293Z,99574.69
2018-11-01T21:52:31.310Z,99577.65
2018-11-01T21:55:08.270Z,99579.85
2018-11-01T21:57:45.078Z,99576.55
2018-11-01T22:00:30.101Z,99575.11
2018-11-01T22:03:25.860Z,99578.70
2018-11-01T22:06:00.150Z,99585.77
2018-11-01T22:08:33.304Z,99577.53
2018-11-01T22:11:08.133Z,99589.34
2018-11-01T22:13:41.775Z,99591.30
2018-11-01T22:16:15.373Z,99596.83
2018-11-01T22:18:49.965Z,99605.23
2018-11-01T22:21:23.238Z,99605.66
2018-11-01T22:24:00.752Z,99606.68
2018-11-01T22:26:35.104Z,99615.70
2018-11-01T22:29:12.574Z,99613.02
2018-11-01T22:31:46.742Z,99616.11
2018-11-01T22:34:27.882Z,99621.03
2018-11-01T22:37:06.295Z,99628.61
2018-11-01T22:39:46.420Z,99628.45
2018-11-01T22:42:20.265Z,99628.50
2018-11-01T22:44:59.077Z,99630.99
2018-11-01T22:47:34.335Z,99631.49
2018-11-01T22:50:09.951Z,99631.45
2018-11-01T22:52:43.118Z,99637.30
2018-11-01T22:55:17.726Z,99624.83
2018-11-01T22:57:52.528Z,99641.44
2018-11-01T23:00:27.221Z,99639.14
2018-11-01T23:03:03.674Z,99640.52
2018-11-01T23:05:38.285Z,99644.04
2018-11-01T23:08:14.357Z,99638.55
2018-11-01T23:10:50.931Z,99647.37
2018-11-01T23:13:24.315Z,99646.00
2018-11-01T23:16:25.508Z,99647.36
2018-11-01T23:19:14.399Z,99647.48
2018-11-01T23:21:55.685Z,99655.53
2018-11-01T23:24:30.694Z,99660.13
2018-11-01T23:27:04.857Z,99653.66
2018-11-01T23:29:37.914Z,99657.80
2018-11-01T23:32:13.245Z,99658.95
2018-11-01T23:34:49.284Z,99662.55
2018-11-01T23:37:27.376Z,99662.03
2018-11-01T23:40:09.870Z,99665.89
2018-11-01T23:42:49.747Z,99673.08
2018-11-01T23:45:29.691Z,99677.55
2018-11-01T23:48:07.396Z,99681.67
2018-11-01T23:50:46.651Z,99687.45
2018-11-01T23:53:25.236Z,99684.72
2018-11-01T23:55:58.836Z,99688.70
2018-11-01T23:58:34.667Z,99692.36
